createdAt,value
2022-10-09T00:01:27.557Z,101414.81
2022-10-09T00:03:56.606Z,101424.31
2022-10-09T00:06:26.264Z,101411.53
2022-10-09T00:08:53.571Z,101423.44
2022-10-09T00:11:26.035Z,101411.38
2022-10-09T00:13:53.777Z,101409.16
2022-10-09T00:16:22.038Z,101411.03
2022-10-09T00:18:49.319Z,101414.72
2022-10-09T00:21:24.818Z,101406.28
2022-10-09T00:23:53.669Z,101400.81
2022-10-09T00:26:20.743Z,101404.44
2022-10-09T00:28:48.258Z,101406.63
2022-10-09T00:31:15.794Z,101412.63
2022-10-09T00:33:42.922Z,101409.69
2022-10-09T00:36:19.448Z,101410.47
2022-10-09T00:38:46.564Z,101405.72
2022-10-09T00:41:17.417Z,101398.81
2022-10-09T00:43:51.532Z,101404.63
2022-10-09T00:46:34.474Z,101397.78
2022-10-09T00:49:26.760Z,101407.53
2022-10-09T00:51:58.494Z,101409.59
2022-10-09T00:54:28.288Z,101404.41
2022-10-09T00:56:55.362Z,101405.03
2022-10-09T00:59:22.960Z,101397.78
2022-10-09T01:01:49.759Z,101400.59
2022-10-09T01:04:16.455Z,101405.22
2022-10-09T01:06:49.550Z,101396.75
2022-10-09T01:09:32.210Z,101390.34
2022-10-09T01:12:00.615Z,101388.81
2022-10-09T01:14:31.819Z,101389.25
2022-10-09T01:17:11.573Z,101388.66
2022-10-09T01:20:04.282Z,101383.66
2022-10-09T01:22:57.855Z,101380.88
2022-10-09T01:25:44.805Z,101388.50
2022-10-09T01:28:14.459Z,101383.56
2022-10-09T01:30:41.665Z,101379.44
2022-10-09T01:33:10.222Z,101382.38
2022-10-09T01:35:37.763Z,101378.81
2022-10-09T01:38:05.994Z,101375.56
2022-10-09T01:40:32.892Z,101377.81
2022-10-09T01:42:59.513Z,101375.66
2022-10-09T01:45:42.466Z,101374.16
2022-10-09T01:48:16.460Z,101367.97
2022-10-09T01:50:51.626Z,101361.97
2022-10-09T01:53:19.796Z,101363.34
2022-10-09T01:55:51.264Z,101364.31
2022-10-09T01:58:28.432Z,101360.63
2022-10-09T02:01:18.598Z,101357.13
2022-10-09T02:03:48.798Z,101357.28
2022-10-09T02:06:17.610Z,101353.81
2022-10-09T02:08:47.066Z,101353.97
2022-10-09T02:11:15.114Z,101356.66
2022-10-09T02:13:43.614Z,101352.59
2022-10-09T02:16:37.371Z,101351.41
2022-10-09T02:19:25.586Z,101350.97
2022-10-09T02:21:59.389Z,101346.84
2022-10-09T02:24:26.904Z,101344.63
2022-10-09T02:26:57.373Z,101343.13
2022-10-09T02:29:24.870Z,101337.50
2022-10-09T02:31:54.845Z,101333.13
2022-10-09T02:34:22.135Z,101333.94
2022-10-09T02:36:49.188Z,101329.66
2022-10-09T02:39:16.010Z,101328.56
2022-10-09T02:41:43.296Z,101335.44
2022-10-09T02:44:10.334Z,101333.31
2022-10-09T02:46:38.447Z,101329.97
2022-10-09T02:49:07.263Z,101336.84
2022-10-09T02:51:33.982Z,101333.13
2022-10-09T02:54:01.046Z,101333.25
2022-10-09T02:56:28.703Z,101330.84
2022-10-09T02:58:55.861Z,101332.22
2022-10-09T03:01:23.310Z,101331.38
2022-10-09T03:03:51.094Z,101331.81
2022-10-09T03:06:28.622Z,101325.59
2022-10-09T03:08:58.566Z,101318.28
2022-10-09T03:11:26.140Z,101326.50
2022-10-09T03:13:54.374Z,101328.66
2022-10-09T03:16:23.898Z,101316.09
2022-10-09T03:18:51.838Z,101322.34
2022-10-09T03:21:21.044Z,101316.94
2022-10-09T03:23:48.226Z,101323.84
2022-10-09T03:26:18.197Z,101323.16
2022-10-09T03:28:48.030Z,101328.56
2022-10-09T03:31:39.758Z,101323.09
2022-10-09T03:34:05.778Z,101324.84
2022-10-09T03:36:32.436Z,101329.78
2022-10-09T03:38:59.106Z,101326.16
2022-10-09T03:41:25.661Z,101330.00
2022-10-09T03:43:52.304Z,101322.09
2022-10-09T03:46:20.507Z,101320.84
2022-10-09T03:48:47.369Z,101324.50
2022-10-09T03:51:13.945Z,101324.25
2022-10-09T03:53:40.592Z,101324.72
2022-10-09T03:56:07.286Z,101324.00
2022-10-09T03:58:33.913Z,101328.56
2022-10-09T04:01:00.669Z,101328.78
2022-10-09T04:03:27.508Z,101332.06
2022-10-09T04:05:54.124Z,101334.81
2022-10-09T04:08:21.221Z,101328.78
2022-10-09T04:10:48.198Z,101331.28
2022-10-09T04:13:17.399Z,101328.66
2022-10-09T04:15:50.816Z,101328.59
2022-10-09T04:18:18.277Z,101322.59
2022-10-09T04:20:51.222Z,101324.31
2022-10-09T04:23:19.087Z,101329.09
2022-10-09T04:25:46.166Z,101320.66
2022-10-09T04:28:13.040Z,101322.09
2022-10-09T04:30:39.760Z,101329.38
2022-10-09T04:33:11.840Z,101318.59
2022-10-09T04:35:46.750Z,101320.44
2022-10-09T04:38:13.378Z,101326.28
2022-10-09T04:40:40.508Z,101325.00
2022-10-09T04:43:07.164Z,101328.53
2022-10-09T04:45:33.897Z,101316.13
2022-10-09T04:48:00.566Z,101324.34
2022-10-09T04:50:27.197Z,101325.06
2022-10-09T04:52:59.957Z,101324.88
2022-10-09T04:55:26.608Z,101317.50
2022-10-09T04:57:53.271Z,101315.81
2022-10-09T05:00:19.841Z,101318.69
2022-10-09T05:02:46.867Z,101317.25
2022-10-09T05:05:14.292Z,101316.44
2022-10-09T05:07:40.938Z,101301.97
2022-10-09T05:10:08.283Z,101311.09
2022-10-09T05:12:37.701Z,101312.13
2022-10-09T05:15:06.189Z,101319.28
2022-10-09T05:17:32.831Z,101310.19
2022-10-09T05:20:00.841Z,101322.44
2022-10-09T05:22:27.498Z,101320.34
2022-10-09T05:24:54.089Z,101320.38
2022-10-09T05:27:23.605Z,101322.66
2022-10-09T05:29:50.195Z,101322.41
2022-10-09T05:32:16.967Z,101316.84
2022-10-09T05:34:45.604Z,101331.31
2022-10-09T05:37:12.506Z,101326.22
2022-10-09T05:39:39.457Z,101329.50
2022-10-09T05:42:06.116Z,101323.13
2022-10-09T05:44:32.819Z,101330.53
2022-10-09T05:46:59.366Z,101334.50
2022-10-09T05:49:26.005Z,101334.50
2022-10-09T05:51:54.009Z,101329.53
2022-10-09T05:54:20.616Z,101330.06
2022-10-09T05:56:47.390Z,101325.34
2022-10-09T05:59:19.366Z,101327.91
2022-10-09T06:01:49.196Z,101329.75
2022-10-09T06:04:24.898Z,101328.69
2022-10-09T06:06:51.701Z,101318.44
2022-10-09T06:09:25.374Z,101321.56
2022-10-09T06:11:53.516Z,101323.31
2022-10-09T06:14:22.634Z,101320.53
2022-10-09T06:16:50.064Z,101322.72
2022-10-09T06:19:18.146Z,101327.91
2022-10-09T06:21:45.326Z,101337.13
2022-10-09T06:24:28.306Z,101331.53
2022-10-09T06:27:01.769Z,101334.16
2022-10-09T06:29:29.990Z,101330.44
2022-10-09T06:31:56.941Z,101330.44
2022-10-09T06:34:24.505Z,101335.16
2022-10-09T06:36:51.093Z,101335.53
2022-10-09T06:39:19.437Z,101326.94
2022-10-09T06:41:46.106Z,101331.50
2022-10-09T06:44:39.687Z,101332.06
2022-10-09T06:47:06.340Z,101328.94
2022-10-09T06:49:32.953Z,101332.31
2022-10-09T06:52:01.929Z,101329.69
2022-10-09T06:54:28.618Z,101332.50
2022-10-09T06:56:58.030Z,101344.53
2022-10-09T06:59:24.873Z,101332.91
2022-10-09T07:01:51.581Z,101334.34
2022-10-09T07:04:18.703Z,101337.03
2022-10-09T07:06:47.664Z,101335.63
2022-10-09T07:09:15.548Z,101338.19
2022-10-09T07:11:45.114Z,101343.94
2022-10-09T07:14:13.981Z,101336.19
2022-10-09T07:16:43.035Z,101344.63
2022-10-09T07:19:11.718Z,101344.88
2022-10-09T07:21:40.396Z,101346.84
2022-10-09T07:24:08.063Z,101338.56
2022-10-09T07:26:37.824Z,101349.16
2022-10-09T07:29:07.585Z,101351.69
2022-10-09T07:31:34.365Z,101344.19
2022-10-09T07:34:01.225Z,101340.56
2022-10-09T07:36:28.018Z,101346.03
2022-10-09T07:38:56.698Z,101335.84
2022-10-09T07:41:26.086Z,101341.84
2022-10-09T07:43:54.572Z,101328.72
2022-10-09T07:46:22.723Z,101335.94
2022-10-09T07:48:50.935Z,101333.44
2022-10-09T07:51:20.016Z,101340.72
2022-10-09T07:53:47.668Z,101340.50
2022-10-09T07:56:22.647Z,101340.41
2022-10-09T07:58:53.955Z,101341.53
2022-10-09T08:01:21.511Z,101341.22
2022-10-09T08:03:49.348Z,101335.59
2022-10-09T08:06:18.128Z,101335.34
2022-10-09T08:08:45.538Z,101331.00
2022-10-09T08:11:15.145Z,101330.75
2022-10-09T08:13:43.371Z,101328.50
2022-10-09T08:16:10.846Z,101326.16
2022-10-09T08:18:38.267Z,101322.38
2022-10-09T08:21:08.454Z,101319.69
2022-10-09T08:23:36.011Z,101320.56
2022-10-09T08:26:03.644Z,101319.25
2022-10-09T08:28:31.043Z,101320.97
2022-10-09T08:30:57.756Z,101320.97
2022-10-09T08:33:25.834Z,101327.41
2022-10-09T08:35:53.215Z,101311.06
2022-10-09T08:38:45.426Z,101317.22
2022-10-09T08:41:39.053Z,101310.53
2022-10-09T08:44:22.393Z,101306.00
2022-10-09T08:47:00.957Z,101310.53
2022-10-09T08:49:55.118Z,101308.91
2022-10-09T08:52:28.992Z,101307.50
2022-10-09T08:55:00.393Z,101313.31
2022-10-09T08:57:32.125Z,101319.38
2022-10-09T08:59:58.752Z,101313.69
2022-10-09T09:02:59.934Z,101308.81
2022-10-09T09:05:57.640Z,101304.94
2022-10-09T09:08:33.373Z,101310.34
2022-10-09T09:11:27.763Z,101294.94
2022-10-09T09:14:11.759Z,101295.75
2022-10-09T09:16:58.048Z,101291.22
2022-10-09T09:19:45.170Z,101287.31
2022-10-09T09:22:14.006Z,101282.88
2022-10-09T09:24:44.053Z,101282.50
2022-10-09T09:27:14.120Z,101277.56
2022-10-09T09:29:45.578Z,101265.00
2022-10-09T09:32:19.602Z,101264.47
2022-10-09T09:34:47.087Z,101262.03
2022-10-09T09:37:13.944Z,101262.16
2022-10-09T09:40:31.296Z,101262.25
2022-10-09T09:42:30.336Z,101254.00
2022-10-09T09:45:02.031Z,101247.50
2022-10-09T09:47:35.988Z,101254.34
2022-10-09T09:50:05.444Z,101242.34
2022-10-09T09:52:37.365Z,101237.09
2022-10-09T09:55:05.138Z,101236.75
2022-10-09T09:57:36.276Z,101234.72
2022-10-09T10:00:16.863Z,101231.53
2022-10-09T10:02:43.501Z,101231.63
2022-10-09T10:05:25.805Z,101227.06
2022-10-09T10:07:52.967Z,101226.75
2022-10-09T10:10:25.662Z,101222.47
2022-10-09T10:12:55.141Z,101218.44
2022-10-09T10:15:28.388Z,101219.53
2022-10-09T10:18:02.200Z,101213.28
2022-10-09T10:20:32.163Z,101212.19
2022-10-09T10:23:00.412Z,101207.81
2022-10-09T10:25:33.479Z,101198.84
2022-10-09T10:28:15.186Z,101204.56
2022-10-09T10:30:42.569Z,101206.47
2022-10-09T10:33:26.447Z,101189.06
2022-10-09T10:35:55.818Z,101193.69
2022-10-09T10:38:47.572Z,101187.97
2022-10-09T10:41:22.835Z,101175.47
2022-10-09T10:43:54.598Z,101171.66
2022-10-09T10:46:53.621Z,101172.75
2022-10-09T10:49:22.205Z,101166.50
2022-10-09T10:52:00.111Z,101164.31
2022-10-09T10:54:40.494Z,101160.25
2022-10-09T10:57:16.224Z,101155.34
2022-10-09T11:00:06.773Z,101154.53
2022-10-09T11:02:53.731Z,101148.81
2022-10-09T11:05:25.299Z,101151.81
2022-10-09T11:08:26.214Z,101142.03
2022-10-09T11:11:14.124Z,101144.72
2022-10-09T11:14:03.678Z,101125.72
2022-10-09T11:16:44.280Z,101139.88
2022-10-09T11:19:20.905Z,101143.66
2022-10-09T11:22:07.213Z,101131.16
2022-10-09T11:24:43.129Z,101131.94
2022-10-09T11:27:16.151Z,101123.00
2022-10-09T11:29:53.214Z,101121.38
2022-10-09T11:32:47.539Z,101118.94
2022-10-09T11:35:25.768Z,101112.66
2022-10-09T11:38:08.234Z,101113.47
2022-10-09T11:40:42.363Z,101105.06
2022-10-09T11:43:28.516Z,101103.13
2022-10-09T11:46:09.750Z,101100.69
2022-10-09T11:48:51.406Z,101093.91
2022-10-09T11:51:30.149Z,101084.94
2022-10-09T11:53:57.941Z,101083.31
2022-10-09T11:56:30.017Z,101073.78
2022-10-09T11:59:01.856Z,101073.81
2022-10-09T12:01:38.292Z,101073.50
2022-10-09T12:04:09.808Z,101069.41
2022-10-09T12:06:53.188Z,101068.59
2022-10-09T12:09:37.527Z,101059.91
2022-10-09T12:12:09.013Z,101056.63
2022-10-09T12:14:38.547Z,101056.38
2022-10-09T12:17:25.628Z,101044.69
2022-10-09T12:20:00.175Z,101046.88
2022-10-09T12:22:35.637Z,101043.88
2022-10-09T12:25:07.674Z,101029.19
2022-10-09T12:27:38.703Z,101025.09
2022-10-09T12:30:12.419Z,101016.97
2022-10-09T12:32:48.342Z,101012.06
2022-10-09T12:35:29.251Z,101007.19
2022-10-09T12:37:55.965Z,101000.13
2022-10-09T12:40:25.517Z,101000.66
2022-10-09T12:42:53.879Z,101002.28
2022-10-09T12:45:24.008Z,101002.84
2022-10-09T12:47:52.495Z,100992.00
2022-10-09T12:50:31.135Z,100989.25
2022-10-09T12:53:04.205Z,100986.53
2022-10-09T12:55:34.479Z,100969.97
2022-10-09T12:58:23.378Z,100973.78
2022-10-09T13:00:53.090Z,100965.63
2022-10-09T13:03:54.137Z,100947.44
2022-10-09T13:06:24.761Z,100957.75
2022-10-09T13:08:58.597Z,100953.13
2022-10-09T13:11:33.917Z,100953.66
2022-10-09T13:14:01.389Z,100953.13
2022-10-09T13:16:43.786Z,100942.53
2022-10-09T13:19:50.384Z,100936.81
2022-10-09T13:22:24.146Z,100933.28
2022-10-09T13:24:53.595Z,100926.22
2022-10-09T13:27:23.730Z,100928.94
2022-10-09T13:29:50.396Z,100918.34
2022-10-09T13:32:17.967Z,100928.69
2022-10-09T13:34:45.496Z,100919.16
2022-10-09T13:37:17.858Z,100917.53
2022-10-09T13:39:44.499Z,100918.09
2022-10-09T13:42:15.344Z,100922.09
2022-10-09T13:44:42.288Z,100914.16
2022-10-09T13:47:09.400Z,100903.00
2022-10-09T13:49:36.084Z,100900.22
2022-10-09T13:52:02.778Z,100892.84
2022-10-09T13:54:29.332Z,100888.84
2022-10-09T13:56:56.065Z,100889.34
2022-10-09T13:59:24.428Z,100883.00
2022-10-09T14:01:54.485Z,100887.28
2022-10-09T14:04:21.133Z,100885.41
2022-10-09T14:06:47.789Z,100885.41
2022-10-09T14:09:15.120Z,100879.09
2022-10-09T14:11:42.323Z,100870.94
2022-10-09T14:14:09.080Z,100871.38
2022-10-09T14:16:35.789Z,100868.63
2022-10-09T14:19:04.170Z,100866.13
2022-10-09T14:21:31.193Z,100864.19
2022-10-09T14:24:00.619Z,100864.84
2022-10-09T14:26:28.328Z,100867.28
2022-10-09T14:28:59.906Z,100857.53
2022-10-09T14:31:26.790Z,100850.53
2022-10-09T14:33:57.777Z,100852.09
2022-10-09T14:36:24.544Z,100849.66
2022-10-09T14:38:51.984Z,100851.75
2022-10-09T14:41:19.857Z,100847.22
2022-10-09T14:43:47.694Z,100844.63
2022-10-09T14:46:18.012Z,100847.75
2022-10-09T14:48:45.963Z,100832.69
2022-10-09T14:51:15.388Z,100834.72
2022-10-09T14:53:42.364Z,100839.75
2022-10-09T14:56:12.837Z,100838.72
2022-10-09T14:58:41.490Z,100824.19
2022-10-09T15:01:12.224Z,100817.25
2022-10-09T15:03:39.462Z,100812.00
2022-10-09T15:06:09.007Z,100808.38
2022-10-09T15:08:37.759Z,100811.03
2022-10-09T15:11:04.929Z,100803.00
2022-10-09T15:13:33.978Z,100802.72
2022-10-09T15:16:02.435Z,100794.97
2022-10-09T15:18:29.842Z,100792.63
2022-10-09T15:20:57.774Z,100792.22
2022-10-09T15:23:24.414Z,100785.44
2022-10-09T15:25:52.678Z,100781.34
2022-10-09T15:28:20.290Z,100790.53
2022-10-09T15:30:55.363Z,100787.28
2022-10-09T15:33:22.396Z,100779.84
2022-10-09T15:35:50.294Z,100783.19
2022-10-09T15:38:21.025Z,100776.31
2022-10-09T15:40:55.616Z,100768.47
2022-10-09T15:43:24.866Z,100770.13
2022-10-09T15:45:54.080Z,100771.53
2022-10-09T15:48:23.749Z,100760.59
2022-10-09T15:50:53.495Z,100766.78
2022-10-09T15:53:23.091Z,100763.53
2022-10-09T15:55:52.590Z,100751.16
2022-10-09T15:58:19.697Z,100747.66
2022-10-09T16:00:49.031Z,100745.13
2022-10-09T16:03:17.351Z,100736.97
2022-10-09T16:05:48.884Z,100744.09
2022-10-09T16:08:17.394Z,100741.66
2022-10-09T16:10:49.387Z,100744.38
2022-10-09T16:13:16.707Z,100742.53
2022-10-09T16:15:45.227Z,100740.06
2022-10-09T16:18:11.970Z,100733.06
2022-10-09T16:20:39.625Z,100741.50
2022-10-09T16:23:08.819Z,100735.25
2022-10-09T16:25:38.740Z,100738.00
2022-10-09T16:28:07.727Z,100728.00
2022-10-09T16:30:39.255Z,100740.50
2022-10-09T16:33:10.281Z,100734.81
2022-10-09T16:35:39.009Z,100738.34
2022-10-09T16:38:05.747Z,100740.53
2022-10-09T16:40:57.338Z,100743.81
2022-10-09T16:43:20.063Z,100739.72
2022-10-09T16:45:46.708Z,100737.28
2022-10-09T16:48:13.274Z,100737.59
2022-10-09T16:50:42.214Z,100740.03
2022-10-09T16:53:12.078Z,100732.69
2022-10-09T16:55:38.996Z,100740.00
2022-10-09T16:58:05.607Z,100732.94
2022-10-09T17:00:32.348Z,100734.84
2022-10-09T17:02:58.943Z,100738.69
2022-10-09T17:05:25.697Z,100740.84
2022-10-09T17:07:52.597Z,100741.38
2022-10-09T17:10:19.490Z,100747.09
2022-10-09T17:12:46.085Z,100744.38
2022-10-09T17:15:13.467Z,100740.03
2022-10-09T17:17:40.149Z,100747.06
2022-10-09T17:20:07.314Z,100745.19
2022-10-09T17:22:34.050Z,100743.28
2022-10-09T17:25:01.543Z,100746.56
2022-10-09T17:27:30.047Z,100745.44
2022-10-09T17:29:57.152Z,100744.63
2022-10-09T17:32:23.819Z,100743.34
2022-10-09T17:34:50.923Z,100743.06
2022-10-09T17:37:17.614Z,100742.50
2022-10-09T17:39:47.478Z,100740.88
2022-10-09T17:42:16.749Z,100743.03
2022-10-09T17:44:43.374Z,100741.69
2022-10-09T17:47:09.984Z,100734.34
2022-10-09T17:49:36.860Z,100741.13
2022-10-09T17:52:03.635Z,100737.88
2022-10-09T17:54:31.638Z,100734.88
2022-10-09T17:57:00.189Z,100744.91
2022-10-09T17:59:27.711Z,100735.44
2022-10-09T18:01:54.514Z,100736.81
2022-10-09T18:04:21.195Z,100732.47
2022-10-09T18:06:47.900Z,100736.53
2022-10-09T18:09:14.487Z,100736.25
2022-10-09T18:11:41.127Z,100740.03
2022-10-09T18:14:09.710Z,100732.72
2022-10-09T18:16:37.921Z,100731.06
2022-10-09T18:19:07.751Z,100735.13
2022-10-09T18:21:35.137Z,100731.34
2022-10-09T18:24:01.866Z,100718.03
2022-10-09T18:26:28.720Z,100720.75
2022-10-09T18:28:55.601Z,100720.19
2022-10-09T18:31:23.661Z,100716.16
2022-10-09T18:33:50.456Z,100721.59
2022-10-09T18:36:20.967Z,100715.34
2022-10-09T18:38:51.130Z,100717.78
2022-10-09T18:41:19.429Z,100709.09
2022-10-09T18:43:46.883Z,100711.22
2022-10-09T18:46:16.413Z,100711.81
2022-10-09T18:48:43.290Z,100710.44
2022-10-09T18:51:14.863Z,100713.19
2022-10-09T18:53:45.280Z,100711.28
2022-10-09T18:56:12.677Z,100707.50
2022-10-09T18:58:41.768Z,100710.78
2022-10-09T19:01:08.707Z,100709.94
2022-10-09T19:03:36.639Z,100703.38
2022-10-09T19:06:04.497Z,100695.22
2022-10-09T19:08:31.121Z,100702.59
2022-10-09T19:10:57.777Z,100700.16
2022-10-09T19:13:25.053Z,100703.09
2022-10-09T19:15:55.900Z,100698.47
2022-10-09T19:18:22.623Z,100703.91
2022-10-09T19:20:49.923Z,100697.44
2022-10-09T19:23:16.865Z,100702.25
2022-10-09T19:25:51.542Z,100697.34
2022-10-09T19:28:18.927Z,100699.81
2022-10-09T19:30:47.110Z,100699.25
2022-10-09T19:33:14.444Z,100696.56
2022-10-09T19:35:49.178Z,100691.09
2022-10-09T19:38:16.194Z,100697.00
2022-10-09T19:40:43.406Z,100684.00
2022-10-09T19:43:10.514Z,100685.66
2022-10-09T19:45:37.308Z,100686.28
2022-10-09T19:48:04.203Z,100680.31
2022-10-09T19:50:31.053Z,100681.13
2022-10-09T19:52:58.259Z,100676.50
2022-10-09T19:55:30.115Z,100671.00
2022-10-09T19:57:58.114Z,100677.56
2022-10-09T20:00:25.021Z,100669.41
2022-10-09T20:02:52.069Z,100670.72
2022-10-09T20:05:18.980Z,100667.16
2022-10-09T20:07:45.632Z,100665.53
2022-10-09T20:10:12.331Z,100673.97
2022-10-09T20:12:39.044Z,100675.66
2022-10-09T20:15:06.624Z,100674.06
2022-10-09T20:17:33.560Z,100671.13
2022-10-09T20:20:04.227Z,100668.59
2022-10-09T20:22:30.856Z,100674.66
2022-10-09T20:24:57.516Z,100676.50
2022-10-09T20:27:24.139Z,100663.66
2022-10-09T20:29:52.700Z,100666.06
2022-10-09T20:32:19.581Z,100667.69
2022-10-09T20:34:46.208Z,100670.13
2022-10-09T20:37:12.942Z,100659.66
2022-10-09T20:39:39.990Z,100666.34
2022-10-09T20:42:06.678Z,100650.94
2022-10-09T20:44:33.428Z,100657.72
2022-10-09T20:47:00.193Z,100665.03
2022-10-09T20:49:26.905Z,100655.25
2022-10-09T20:51:53.644Z,100655.25
2022-10-09T20:54:21.715Z,100649.53
2022-10-09T20:56:49.510Z,100652.53
2022-10-09T20:59:17.992Z,100644.34
2022-10-09T21:01:45.133Z,100649.22
2022-10-09T21:04:12.239Z,100654.97
2022-10-09T21:06:48.421Z,100650.69
2022-10-09T21:09:15.067Z,100657.13
2022-10-09T21:11:42.569Z,100654.22
2022-10-09T21:14:09.990Z,100648.25
2022-10-09T21:16:36.904Z,100645.78
2022-10-09T21:19:05.463Z,100651.13
2022-10-09T21:21:33.295Z,100653.78
2022-10-09T21:24:00.669Z,100654.84
2022-10-09T21:26:28.644Z,100648.16
2022-10-09T21:28:59.980Z,100653.06
2022-10-09T21:31:29.047Z,100644.41
2022-10-09T21:33:56.650Z,100648.75
2022-10-09T21:37:08.894Z,100639.22
2022-10-09T21:39:33.166Z,100646.28
2022-10-09T21:42:00.027Z,100633.22
2022-10-09T21:44:28.987Z,100635.66
2022-10-09T21:46:56.158Z,100635.69
2022-10-09T21:49:28.217Z,100628.19
2022-10-09T21:51:55.866Z,100627.63
2022-10-09T21:54:22.794Z,100627.38
2022-10-09T21:56:49.573Z,100633.53
2022-10-09T21:59:16.588Z,100631.16
2022-10-09T22:01:43.291Z,100631.16
2022-10-09T22:04:10.002Z,100625.47
2022-10-09T22:06:36.718Z,100622.66
2022-10-09T22:09:04.446Z,100626.19
2022-10-09T22:11:31.150Z,100629.00
2022-10-09T22:13:57.833Z,100628.69
2022-10-09T22:16:24.624Z,100627.94
2022-10-09T22:18:51.242Z,100626.56
2022-10-09T22:21:18.990Z,100625.69
2022-10-09T22:23:46.946Z,100624.25
2022-10-09T22:26:17.029Z,100627.66
2022-10-09T22:28:46.892Z,100628.38
2022-10-09T22:31:15.136Z,100639.41
2022-10-09T22:33:42.389Z,100638.41
2022-10-09T22:36:10.652Z,100638.94
2022-10-09T22:38:37.937Z,100635.06
2022-10-09T22:41:09.772Z,100634.72
2022-10-09T22:43:37.919Z,100635.28
2022-10-09T22:46:09.636Z,100638.69
2022-10-09T22:48:36.782Z,100641.59
2022-10-09T22:51:05.951Z,100633.84
2022-10-09T22:53:33.557Z,100629.75
2022-10-09T22:56:00.362Z,100627.81
2022-10-09T22:58:27.079Z,100626.81
2022-10-09T23:00:53.938Z,100633.00
2022-10-09T23:03:20.733Z,100633.09
2022-10-09T23:05:47.815Z,100631.00
2022-10-09T23:08:15.196Z,100626.31
2022-10-09T23:10:41.883Z,100632.91
2022-10-09T23:13:08.661Z,100631.69
2022-10-09T23:15:38.433Z,100630.25
2022-10-09T23:18:05.614Z,100630.53
2022-10-09T23:20:37.179Z,100626.91
2022-10-09T23:23:03.966Z,100625.59
2022-10-09T23:25:33.940Z,100622.91
2022-10-09T23:28:00.881Z,100618.66
2022-10-09T23:30:27.476Z,100616.84
2022-10-09T23:32:54.098Z,100621.44
2022-10-09T23:35:20.785Z,100615.16
2022-10-09T23:37:47.782Z,100620.03
2022-10-09T23:40:14.433Z,100610.22
2022-10-09T23:42:41.023Z,100619.31
2022-10-09T23:45:08.526Z,100615.13
2022-10-09T23:47:35.164Z,100614.72
2022-10-09T23:50:01.850Z,100606.84
2022-10-09T23:52:30.000Z,100607.00
2022-10-09T23:54:56.640Z,100596.88
2022-10-09T23:57:23.646Z,100603.25
2022-10-09T23:59:50.856Z,100604.72
